Time;durP1;ratioP1;P1;durP2;ratioP2;P2;SDS_P1;SDS_P2;PMS_P1;PMS_P2;Temp;Humidity;BMP_temperature;BMP_pressure;BME280_temperature;BME280_humidity;BME280_pressure;Samples;Min_cycle;Max_cycle;Signal;HPM_P1;HPM_P2
2021/06/25 00:01:17;;;;;;;7.82;3.90;;;;;;;9.49;53.08;101877.28;5040185;28;20047;-68
2021/06/25 00:03:42;;;;;;;6.05;3.17;;;;;;;9.38;53.13;101885.31;5038994;28;20056;-68
2021/06/25 00:06:08;;;;;;;5.70;3.22;;;;;;;9.42;53.35;101875.69;5038747;28;20029;-68
2021/06/25 00:08:33;;;;;;;4.68;2.95;;;;;;;9.46;52.73;101872.16;5042305;28;20052;-68
2021/06/25 00:10:59;;;;;;;5.65;3.25;;;;;;;9.39;52.77;101869.66;5040535;28;20020;-68
2021/06/25 00:13:24;;;;;;;8.38;4.38;;;;;;;9.45;53.01;101865.19;5045521;28;20126;-68
2021/06/25 00:15:50;;;;;;;5.07;3.75;;;;;;;9.38;53.24;101865.31;5043457;28;20042;-68
2021/06/25 00:18:15;;;;;;;4.63;3.55;;;;;;;9.37;52.97;101860.13;5026033;28;20793;-68
2021/06/25 00:20:41;;;;;;;7.60;3.90;;;;;;;9.20;53.38;101865.66;5041718;28;20516;-68
2021/06/25 00:23:06;;;;;;;7.65;3.90;;;;;;;9.06;53.64;101863.31;5042049;28;20059;-67
2021/06/25 00:25:32;;;;;;;6.72;4.38;;;;;;;8.95;53.57;101866.09;5042561;28;20042;-68
2021/06/25 00:27:58;;;;;;;8.00;4.35;;;;;;;8.89;53.79;101862.72;5044426;28;20391;-68
2021/06/25 00:30:24;;;;;;;6.25;4.10;;;;;;;8.84;54.21;101856.75;5026160;28;20116;-68
2021/06/25 00:32:49;;;;;;;7.97;4.28;;;;;;;9.00;53.56;101857.34;5035940;28;20185;-68
2021/06/25 00:35:15;;;;;;;5.25;3.72;;;;;;;8.90;53.92;101847.06;5043532;28;20087;-68
2021/06/25 00:37:42;;;;;;;4.35;2.85;;;;;;;8.95;53.84;101849.59;5040946;28;20040;-68
2021/06/25 00:40:09;;;;;;;5.35;4.22;;;;;;;8.91;53.45;101847.94;5034388;28;20029;-68
2021/06/25 00:42:35;;;;;;;5.55;3.70;;;;;;;8.89;53.77;101840.13;5034247;28;20136;-68
2021/06/25 00:45:12;;;;;;;7.40;3.58;;;;;;;8.80;53.56;101840.28;5041550;28;20545;-68
2021/06/25 00:47:38;;;;;;;7.95;4.68;;;;;;;8.74;53.76;101832.59;5041433;28;20040;-68
2021/06/25 00:50:05;;;;;;;4.75;4.18;;;;;;;8.84;53.61;101839.34;5025044;28;20087;-68
2021/06/25 00:52:31;;;;;;;5.78;3.80;;;;;;;8.95;53.46;101837.41;5019159;28;20701;-68
2021/06/25 00:54:57;;;;;;;6.47;4.40;;;;;;;8.94;53.28;101838.31;5041662;28;20033;-68
2021/06/25 00:57:22;;;;;;;4.00;3.17;;;;;;;8.87;53.36;101831.47;5043058;28;20104;-68
2021/06/25 00:59:48;;;;;;;7.63;3.85;;;;;;;8.85;53.22;101828.06;5039105;28;20037;-68
2021/06/25 01:02:13;;;;;;;4.82;3.38;;;;;;;8.90;53.38;101836.66;5042206;28;20040;-68
2021/06/25 01:04:39;;;;;;;6.32;4.10;;;;;;;8.81;53.38;101829.00;5040930;28;20091;-68
2021/06/25 01:07:05;;;;;;;4.03;3.30;;;;;;;8.82;53.24;101827.22;5043061;28;20035;-68
2021/06/25 01:09:34;;;;;;;5.18;3.85;;;;;;;8.77;53.43;101825.56;5041517;28;20040;-69
2021/06/25 01:12:05;;;;;;;5.03;3.65;;;;;;;8.76;53.51;101822.97;5034207;28;20151;-69
2021/06/25 01:14:34;;;;;;;11.80;4.80;;;;;;;8.79;53.82;101812.50;5040775;28;20060;-68
2021/06/25 01:17:02;;;;;;;6.75;4.00;;;;;;;8.94;53.23;101827.00;5041852;28;20024;-68
2021/06/25 01:19:28;;;;;;;7.05;4.50;;;;;;;8.84;53.28;101826.31;5041421;28;20049;-69
2021/06/25 01:21:53;;;;;;;6.57;4.55;;;;;;;8.80;53.13;101829.84;5041349;28;20021;-68
2021/06/25 01:24:19;;;;;;;11.45;4.18;;;;;;;8.73;53.38;101833.47;5041245;28;20113;-68
2021/06/25 01:26:44;;;;;;;5.68;4.05;;;;;;;8.65;53.87;101832.69;5036818;28;20143;-68
2021/06/25 01:29:10;;;;;;;7.68;4.55;;;;;;;8.60;53.96;101837.13;5042586;28;20520;-69
2021/06/25 01:31:35;;;;;;;8.43;4.55;;;;;;;8.51;54.12;101828.56;5039891;28;20075;-69
2021/06/25 01:34:05;;;;;;;7.05;5.15;;;;;;;8.45;54.27;101836.50;5041736;28;20083;-68
2021/06/25 01:36:31;;;;;;;6.93;3.88;;;;;;;8.41;54.23;101827.00;5041957;28;20202;-70
2021/06/25 01:38:59;;;;;;;6.80;4.78;;;;;;;8.40;54.37;101835.69;5055261;28;20065;-68
2021/06/25 01:41:24;;;;;;;9.23;4.75;;;;;;;8.35;54.34;101821.88;5042854;28;20135;-69
2021/06/25 01:43:51;;;;;;;7.65;4.45;;;;;;;8.34;54.38;101831.44;5039740;28;20033;-70
2021/06/25 01:46:18;;;;;;;6.75;4.57;;;;;;;8.34;54.58;101831.44;5040674;28;20041;-68
2021/06/25 01:48:44;;;;;;;6.35;4.93;;;;;;;8.41;55.17;101836.56;5040279;28;20051;-68
2021/06/25 01:51:09;;;;;;;5.95;4.00;;;;;;;8.49;55.22;101845.09;5040211;28;20103;-68
2021/06/25 01:53:35;;;;;;;6.80;4.50;;;;;;;8.57;54.92;101846.72;5025466;28;20094;-68
2021/06/25 01:56:01;;;;;;;4.60;3.60;;;;;;;8.64;54.96;101852.69;5040746;28;20059;-69
2021/06/25 01:58:29;;;;;;;7.80;4.85;;;;;;;8.67;54.87;101859.59;5041508;28;20945;-68
2021/06/25 02:01:11;;;;;;;6.90;4.40;;;;;;;8.69;54.90;101852.59;5038403;28;20064;-70
2021/06/25 02:03:37;;;;;;;;;;;;;;;8.75;54.79;101855.16;5042023;28;20106;-68
2021/06/25 02:06:04;;;;;;;7.38;3.85;;;;;;;8.76;54.79;101860.34;5024188;28;19924;-69
2021/06/25 02:08:29;;;;;;;8.23;5.25;;;;;;;8.79;54.80;101858.59;5039655;28;20124;-70
2021/06/25 02:10:55;;;;;;;5.50;4.40;;;;;;;8.85;54.93;101851.50;5040291;28;20143;-69
2021/06/25 02:13:20;;;;;;;6.82;5.00;;;;;;;8.90;54.79;101851.44;5041751;28;20662;-68
2021/06/25 02:15:46;;;;;;;5.95;4.40;;;;;;;8.96;54.51;101836.53;5040098;28;20788;-68
2021/06/25 02:18:11;;;;;;;6.85;4.90;;;;;;;9.01;54.52;101825.16;5041729;28;20033;-68
2021/06/25 02:20:37;;;;;;;7.63;4.28;;;;;;;9.13;54.54;101825.78;5041618;28;20028;-70
2021/06/25 02:23:03;;;;;;;6.00;4.75;;;;;;;9.22;54.08;101823.91;5047377;28;20037;-68
2021/06/25 02:25:28;;;;;;;5.43;4.18;;;;;;;9.26;54.14;101821.19;5049647;28;20067;-70
2021/06/25 02:27:54;;;;;;;6.00;4.90;;;;;;;9.19;54.16;101817.00;5044979;28;20029;-70
2021/06/25 02:30:19;;;;;;;9.57;4.85;;;;;;;9.04;54.02;101809.47;5031114;28;20035;-67
2021/06/25 02:32:46;;;;;;;5.68;4.30;;;;;;;9.11;53.96;101816.28;5039152;28;20115;-68
2021/06/25 02:35:13;;;;;;;5.88;3.90;;;;;;;9.10;53.97;101822.41;5018447;28;20783;-68
2021/06/25 02:37:39;;;;;;;5.78;4.50;;;;;;;9.03;54.11;101825.97;5038712;28;20098;-70
2021/06/25 02:40:06;;;;;;;9.63;5.00;;;;;;;8.99;53.89;101822.59;5037356;28;20488;-69
2021/06/25 02:42:31;;;;;;;7.32;4.65;;;;;;;8.92;54.23;101823.59;5040241;28;20049;-68
2021/06/25 02:44:57;;;;;;;5.38;4.38;;;;;;;8.82;53.92;101828.09;5041040;28;20123;-67
2021/06/25 02:47:23;;;;;;;5.38;3.53;;;;;;;8.80;53.88;101827.25;5040203;28;20120;-68
2021/06/25 02:49:49;;;;;;;6.90;4.22;;;;;;;8.85;54.13;101822.84;5039258;28;20136;-68
2021/06/25 02:52:14;;;;;;;7.70;4.80;;;;;;;8.82;53.79;101820.28;5040717;28;20033;-68
2021/06/25 02:54:40;;;;;;;6.22;3.80;;;;;;;8.73;54.17;101823.88;5041167;28;20128;-68
2021/06/25 02:57:06;;;;;;;9.27;5.32;;;;;;;8.79;53.99;101807.31;5022705;28;20094;-68
2021/06/25 02:59:31;;;;;;;6.50;4.50;;;;;;;8.79;54.03;101804.69;5038310;28;20037;-68
2021/06/25 03:01:57;;;;;;;7.38;5.03;;;;;;;8.74;53.91;101801.31;5023413;28;20044;-68
2021/06/25 03:04:23;;;;;;;8.60;5.68;;;;;;;8.63;53.92;101804.06;5039980;28;20051;-68
2021/06/25 03:06:48;;;;;;;7.35;5.22;;;;;;;8.45;54.19;101800.03;5040645;28;20025;-68
2021/06/25 03:09:14;;;;;;;8.55;5.28;;;;;;;8.29;54.33;101804.63;5038528;28;20072;-68
2021/06/25 03:11:39;;;;;;;7.40;5.20;;;;;;;8.21;54.17;101806.47;5014417;28;20095;-68
2021/06/25 03:14:04;;;;;;;7.22;4.47;;;;;;;8.17;54.48;101802.19;5040192;28;20378;-68
2021/06/25 03:16:30;;;;;;;7.90;4.43;;;;;;;8.28;54.40;101808.09;5038369;28;20061;-68
2021/06/25 03:18:56;;;;;;;7.53;4.30;;;;;;;8.29;54.31;101793.31;5041584;28;20029;-69
2021/06/25 03:21:21;;;;;;;4.85;4.35;;;;;;;8.24;54.17;101792.53;5038012;28;20466;-69
2021/06/25 03:23:47;;;;;;;8.35;4.40;;;;;;;8.28;54.03;101791.63;5041011;28;20035;-68
2021/06/25 03:26:12;;;;;;;7.85;4.85;;;;;;;8.25;53.83;101796.84;5036905;28;20158;-68
2021/06/25 03:28:38;;;;;;;8.63;4.95;;;;;;;8.23;54.28;101793.44;5041536;28;20086;-68
2021/06/25 03:31:03;;;;;;;5.95;4.47;;;;;;;8.22;54.08;101789.09;5037941;28;20551;-68
2021/06/25 03:33:29;;;;;;;7.38;4.40;;;;;;;8.25;54.05;101783.81;5022820;28;20160;-68
2021/06/25 03:35:54;;;;;;;6.63;4.43;;;;;;;8.30;54.36;101780.28;5039210;28;20029;-68
2021/06/25 03:38:22;;;;;;;8.60;5.05;;;;;;;8.32;53.98;101783.72;5040013;28;20056;-68
2021/06/25 03:40:47;;;;;;;6.30;3.97;;;;;;;8.26;54.19;101777.75;5038247;28;20436;-68
2021/06/25 03:43:13;;;;;;;7.63;4.03;;;;;;;8.20;53.98;101772.63;5040051;28;20033;-68
2021/06/25 03:45:38;;;;;;;7.22;4.88;;;;;;;8.23;53.99;101772.59;5044763;28;20051;-68
2021/06/25 03:48:04;;;;;;;10.93;4.78;;;;;;;8.25;54.11;101768.19;5041377;28;20045;-68
2021/06/25 03:50:30;;;;;;;7.93;4.88;;;;;;;8.22;54.21;101763.91;5042634;28;20068;-68
2021/06/25 03:52:56;;;;;;;9.40;5.13;;;;;;;8.30;53.96;101758.59;5043057;28;20060;-68
2021/06/25 03:55:21;;;;;;;5.40;4.13;;;;;;;8.46;53.72;101765.25;5026950;28;20037;-68
2021/06/25 03:57:47;;;;;;;10.35;5.05;;;;;;;8.51;53.38;101766.03;5042987;28;20037;-68
2021/06/25 04:00:16;;;;;;;7.45;5.13;;;;;;;8.45;53.23;101766.16;5042136;28;20025;-70
2021/06/25 04:02:42;;;;;;;6.32;4.30;;;;;;;8.47;53.29;101764.38;5041972;28;20043;-68
2021/06/25 04:05:09;;;;;;;5.85;3.70;;;;;;;8.51;53.57;101755.59;5042372;28;20048;-68
2021/06/25 04:07:36;;;;;;;6.20;4.32;;;;;;;8.67;53.35;101750.13;5042428;28;20044;-68
2021/06/25 04:10:04;;;;;;;7.53;5.15;;;;;;;8.78;53.37;101745.59;5026127;28;20063;-69
2021/06/25 04:12:31;;;;;;;12.63;5.68;;;;;;;8.83;53.08;101746.41;5033773;28;20051;-68
2021/06/25 04:14:56;;;;;;;6.55;5.05;;;;;;;8.82;52.93;101749.88;5043888;28;20505;-68
2021/06/25 04:17:22;;;;;;;7.43;4.50;;;;;;;8.87;53.17;101750.66;5039342;28;20166;-69
2021/06/25 04:19:47;;;;;;;6.38;4.22;;;;;;;9.01;53.66;101750.41;5042937;28;20033;-69
2021/06/25 04:22:12;;;;;;;9.82;4.35;;;;;;;9.23;53.17;101748.25;5025031;28;20036;-68
2021/06/25 04:24:38;;;;;;;6.32;4.43;;;;;;;9.36;52.97;101749.66;5042091;28;20115;-68
2021/06/25 04:27:04;;;;;;;7.65;5.03;;;;;;;9.55;52.49;101759.75;5043897;28;20024;-68
2021/06/25 04:29:31;;;;;;;6.30;4.40;;;;;;;9.71;52.76;101758.50;5025033;28;20738;-69
2021/06/25 04:31:57;;;;;;;9.65;5.60;;;;;;;9.80;52.46;101766.16;5045166;28;20043;-68
2021/06/25 04:34:23;;;;;;;7.93;4.82;;;;;;;9.87;52.47;101760.81;5033335;28;20032;-68
2021/06/25 04:36:48;;;;;;;8.10;5.30;;;;;;;9.95;52.47;101756.28;5035336;28;20477;-68
2021/06/25 04:39:14;;;;;;;8.30;4.55;;;;;;;10.09;52.24;101758.56;5037856;28;20033;-69
2021/06/25 04:41:39;;;;;;;7.30;5.28;;;;;;;10.20;52.06;101751.31;5042311;28;20037;-68
2021/06/25 04:44:05;;;;;;;7.28;5.28;;;;;;;10.36;51.84;101754.41;5026566;28;20159;-68
2021/06/25 04:46:32;;;;;;;8.52;5.38;;;;;;;10.58;51.44;101750.34;5041743;28;20041;-68
2021/06/25 04:48:58;;;;;;;7.78;5.57;;;;;;;10.72;51.44;101749.97;5043579;28;20055;-68
2021/06/25 04:51:23;;;;;;;7.22;4.50;;;;;;;10.99;51.39;101745.78;5040614;28;20458;-68
2021/06/25 04:53:49;;;;;;;8.77;5.32;;;;;;;11.18;51.13;101742.66;5040789;28;20031;-68
2021/06/25 04:56:14;;;;;;;8.45;4.43;;;;;;;11.39;50.70;101744.63;5025712;28;20050;-68
2021/06/25 04:58:40;;;;;;;6.00;4.47;;;;;;;11.48;50.67;101742.66;5043484;28;20454;-68
2021/06/25 05:01:05;;;;;;;7.60;5.05;;;;;;;11.61;50.30;101744.00;5070179;22;20381;-68
2021/06/25 05:03:33;;;;;;;5.55;4.18;;;;;;;11.79;50.37;101743.44;5077541;28;20040;-68
2021/06/25 05:05:58;;;;;;;8.80;5.60;;;;;;;12.18;49.67;101740.47;5076220;28;20028;-68
2021/06/25 05:08:24;;;;;;;4.20;3.80;;;;;;;12.82;49.22;101750.53;5075325;28;20059;-67
2021/06/25 05:10:49;;;;;;;6.97;4.78;;;;;;;14.72;44.70;101752.75;5092139;28;20024;-69
2021/06/25 05:13:15;;;;;;;8.27;5.32;;;;;;;17.09;39.43;101738.69;5077191;28;20036;-69
2021/06/25 05:15:41;;;;;;;4.32;3.92;;;;;;;18.57;35.91;101738.25;5074269;28;20055;-70
2021/06/25 05:18:19;;;;;;;6.93;3.97;;;;;;;19.47;34.03;101743.22;5075250;28;20115;-68
2021/06/25 05:20:46;;;;;;;6.97;4.53;;;;;;;20.72;31.24;101737.63;5075029;28;20105;-71
2021/06/25 05:23:13;;;;;;;6.45;4.45;;;;;;;21.98;29.72;101736.56;5072947;28;20051;-68
2021/06/25 05:25:39;;;;;;;6.78;4.78;;;;;;;22.47;28.76;101740.81;5075491;28;20092;-67
2021/06/25 05:28:08;;;;;;;4.60;3.60;;;;;;;22.99;27.63;101744.75;5072769;28;20124;-65
2021/06/25 05:30:34;;;;;;;4.45;3.13;;;;;;;21.73;28.68;101742.84;5073708;28;20032;-64
2021/06/25 05:33:00;;;;;;;6.80;4.70;;;;;;;19.90;32.93;101751.09;5073772;28;20093;-64
2021/06/25 05:35:30;;;;;;;4.82;3.67;;;;;;;19.25;34.29;101756.97;5073318;28;20466;-65
2021/06/25 05:38:01;;;;;;;10.43;4.50;;;;;;;18.62;34.92;101746.75;5078886;28;20031;-64
2021/06/25 05:40:26;;;;;;;6.60;3.22;;;;;;;19.73;34.69;101739.88;5073122;28;20404;-62
2021/06/25 05:42:52;;;;;;;7.22;3.92;;;;;;;22.02;30.55;101743.31;5077314;28;20028;-65
2021/06/25 05:45:18;;;;;;;5.28;3.78;;;;;;;23.65;27.77;101741.25;5077626;28;20097;-66
2021/06/25 05:47:43;;;;;;;5.38;3.40;;;;;;;24.58;26.86;101735.22;5075748;28;20276;-66
2021/06/25 05:50:09;;;;;;;6.22;2.95;;;;;;;25.56;24.79;101732.91;5074132;28;20088;-67
2021/06/25 05:52:34;;;;;;;6.53;4.30;;;;;;;24.82;25.59;101731.38;5073093;28;20031;-66
2021/06/25 05:55:00;;;;;;;3.33;2.92;;;;;;;25.22;25.35;101725.22;5078399;28;20419;-66
2021/06/25 05:57:26;;;;;;;5.95;3.40;;;;;;;25.67;24.02;101730.91;5078926;28;20082;-66
2021/06/25 05:59:51;;;;;;;5.18;2.97;;;;;;;25.83;24.20;101732.19;5072670;28;20078;-64
2021/06/25 06:02:17;;;;;;;4.85;3.55;;;;;;;26.57;23.85;101731.50;5071995;28;20095;-66
2021/06/25 06:04:42;;;;;;;3.90;2.67;;;;;;;27.29;22.88;101737.13;5074031;28;20042;-66
2021/06/25 06:07:10;;;;;;;4.35;2.70;;;;;;;26.42;23.32;101733.78;5071342;28;20103;-65
2021/06/25 06:09:35;;;;;;;4.82;2.38;;;;;;;26.25;23.85;101726.53;5074696;28;20123;-67
2021/06/25 06:12:01;;;;;;;3.60;2.03;;;;;;;26.90;23.04;101737.31;5072839;28;20668;-66
2021/06/25 06:14:26;;;;;;;5.00;2.47;;;;;;;25.96;22.96;101731.91;5080091;28;20028;-65
2021/06/25 06:16:52;;;;;;;6.88;3.30;;;;;;;25.82;23.34;101727.81;5072039;28;20024;-66
2021/06/25 06:19:18;;;;;;;3.08;2.72;;;;;;;25.46;23.78;101720.31;5076130;28;20035;-64
2021/06/25 06:33:04;;;;;;;2.83;2.47;;;;;;;25.11;24.25;101727.97;5070695;28;20036;-66
2021/06/25 06:35:30;;;;;;;3.13;2.10;;;;;;;26.99;22.12;101739.09;5071419;28;20154;-69
2021/06/25 06:38:01;;;;;;;2.50;1.95;;;;;;;25.34;24.57;101740.16;5071680;28;20145;-67
2021/06/25 06:40:27;;;;;;;2.80;1.88;;;;;;;26.75;22.45;101749.53;5086758;28;20071;-65
2021/06/25 06:42:53;;;;;;;3.45;1.73;;;;;;;27.44;22.26;101746.34;5092821;28;20481;-66
2021/06/25 06:45:19;;;;;;;1.98;1.73;;;;;;;27.90;21.09;101741.75;5071418;28;20098;-64
2021/06/25 06:47:45;;;;;;;5.60;2.28;;;;;;;28.34;21.19;101739.09;5074356;28;20032;-64
2021/06/25 06:50:12;;;;;;;1.83;1.50;;;;;;;28.16;20.84;101735.59;5070744;28;20058;-64
2021/06/25 06:52:45;;;;;;;3.25;2.33;;;;;;;26.65;22.59;101730.81;5075935;28;20090;-66
2021/06/25 06:55:19;;;;;;;3.17;1.90;;;;;;;29.02;20.43;101731.19;5072902;28;20024;-63
2021/06/25 06:57:45;;;;;;;4.93;2.60;;;;;;;28.79;20.65;101731.78;5072817;28;20040;-64
2021/06/25 07:00:12;;;;;;;5.53;2.33;;;;;;;28.49;20.31;101725.88;5073154;28;20050;-67
2021/06/25 07:02:39;;;;;;;2.65;2.45;;;;;;;28.10;20.61;101728.16;5073108;28;20039;-65
2021/06/25 07:05:06;;;;;;;2.17;1.98;;;;;;;29.60;20.39;101724.97;5070303;28;20112;-64
2021/06/25 07:07:32;;;;;;;4.30;3.30;;;;;;;29.54;19.58;101723.75;5076633;28;20031;-66
2021/06/25 07:09:57;;;;;;;2.88;2.20;;;;;;;29.15;19.91;101727.06;5069718;28;20039;-64
2021/06/25 07:12:23;;;;;;;5.30;4.18;;;;;;;29.71;19.15;101731.88;5069673;28;20131;-67
2021/06/25 07:14:49;;;;;;;4.55;2.95;;;;;;;29.52;19.47;101733.84;5072591;28;20024;-65
2021/06/25 07:17:14;;;;;;;3.35;2.08;;;;;;;29.83;19.71;101733.22;5073835;28;20559;-65
2021/06/25 07:19:40;;;;;;;7.25;5.22;;;;;;;29.81;19.35;101729.84;5073226;28;20485;-68
2021/06/25 07:22:05;;;;;;;3.50;3.08;;;;;;;26.21;23.20;101725.13;5068204;28;20032;-64
2021/06/25 07:24:31;;;;;;;3.20;2.90;;;;;;;27.26;23.14;101737.44;5072084;28;20038;-64
2021/06/25 07:26:56;;;;;;;4.10;3.20;;;;;;;29.08;19.54;101742.16;5072681;28;20025;-66
2021/06/25 07:29:22;;;;;;;11.25;4.80;;;;;;;27.22;22.33;101738.72;5070479;28;20481;-65
2021/06/25 07:31:47;;;;;;;4.45;2.85;;;;;;;27.69;21.48;101735.88;5070277;28;20158;-64
2021/06/25 07:34:13;;;;;;;4.75;3.92;;;;;;;25.23;23.94;101735.75;5069840;28;20698;-65
2021/06/25 07:36:39;;;;;;;4.60;3.78;;;;;;;26.52;22.47;101739.16;5073940;28;20032;-68
2021/06/25 07:39:08;;;;;;;8.77;6.78;;;;;;;28.45;21.01;101735.28;5071678;28;20064;-66
2021/06/25 07:41:33;;;;;;;4.65;3.40;;;;;;;28.37;20.70;101732.56;5071206;28;20081;-62
2021/06/25 07:43:59;;;;;;;7.07;4.03;;;;;;;26.02;22.37;101725.94;5076499;28;20549;-67
2021/06/25 07:46:24;;;;;;;16.60;4.70;;;;;;;23.76;25.28;101733.19;5073834;28;20065;-64
2021/06/25 07:48:50;;;;;;;4.47;4.15;;;;;;;22.62;27.39;101730.78;5070335;28;20039;-64
2021/06/25 07:51:16;;;;;;;8.45;4.60;;;;;;;22.24;27.77;101723.09;5077353;28;20517;-64
2021/06/25 07:53:41;;;;;;;5.53;4.78;;;;;;;22.73;27.72;101732.63;5072786;28;20035;-64
2021/06/25 07:56:07;;;;;;;5.65;5.13;;;;;;;24.14;24.70;101725.63;5074742;28;20589;-63
2021/06/25 07:58:35;;;;;;;4.00;3.47;;;;;;;26.14;22.48;101724.84;5071030;28;20171;-65
2021/06/25 08:01:00;;;;;;;4.32;3.90;;;;;;;26.67;22.49;101720.75;5072382;28;20043;-63
2021/06/25 08:03:26;;;;;;;4.38;3.85;;;;;;;27.02;21.80;101714.66;5074475;28;20352;-64
2021/06/25 08:05:54;;;;;;;6.38;4.47;;;;;;;28.43;20.78;101715.75;5073439;28;20037;-65
2021/06/25 08:08:20;;;;;;;4.50;4.07;;;;;;;28.21;20.25;101725.25;5053299;28;20043;-66
2021/06/25 08:10:45;;;;;;;7.35;4.32;;;;;;;25.56;22.16;101730.22;5069775;28;20389;-66
2021/06/25 08:13:11;;;;;;;7.40;4.00;;;;;;;23.61;24.44;101729.13;5068991;28;20419;-64
2021/06/25 08:15:36;;;;;;;4.30;3.35;;;;;;;24.80;23.15;101717.31;5071824;28;20028;-66
2021/06/25 08:18:02;;;;;;;7.85;4.72;;;;;;;25.16;23.33;101712.38;5070505;28;20028;-66
2021/06/25 08:20:27;;;;;;;3.45;3.10;;;;;;;27.26;21.33;101721.34;5085633;28;20094;-65
2021/06/25 08:22:53;;;;;;;6.35;4.63;;;;;;;24.99;23.49;101711.19;5069486;28;20028;-63
2021/06/25 08:25:19;;;;;;;4.72;3.53;;;;;;;22.88;26.09;101719.94;5069852;28;20080;-65
2021/06/25 08:27:44;;;;;;;6.13;4.93;;;;;;;22.05;27.00;101720.94;5070189;28;20113;-63
2021/06/25 08:30:11;;;;;;;4.53;4.00;;;;;;;22.60;25.80;101722.06;5074002;28;20086;-64
2021/06/25 08:32:37;;;;;;;4.70;4.05;;;;;;;24.17;23.06;101725.41;5074717;28;20122;-65
2021/06/25 08:35:05;;;;;;;5.18;3.92;;;;;;;24.70;22.31;101724.44;5072364;28;20105;-65
2021/06/25 08:37:31;;;;;;;6.70;3.78;;;;;;;25.43;21.80;101728.59;5078328;28;20408;-63
2021/06/25 08:39:56;;;;;;;5.00;4.50;;;;;;;25.46;20.78;101725.66;5074127;28;20024;-64
2021/06/25 08:42:23;;;;;;;4.35;4.03;;;;;;;25.43;21.18;101731.28;5073423;28;20032;-65
2021/06/25 08:44:49;;;;;;;4.05;3.30;;;;;;;26.06;20.53;101722.88;5078532;28;20044;-65
2021/06/25 08:47:15;;;;;;;4.25;3.45;;;;;;;26.03;20.24;101722.31;5074993;28;20035;-65
2021/06/25 08:49:45;;;;;;;7.15;3.88;;;;;;;26.64;20.30;101721.91;5073271;28;20036;-63
2021/06/25 08:52:11;;;;;;;3.78;3.05;;;;;;;28.73;18.59;101719.81;5079105;28;20058;-65
2021/06/25 08:54:38;;;;;;;6.85;3.20;;;;;;;29.70;17.46;101709.47;5075253;28;20474;-64
2021/06/25 08:57:07;;;;;;;4.97;4.57;;;;;;;29.28;17.78;101706.88;5073369;28;20122;-66
2021/06/25 08:59:33;;;;;;;6.05;3.60;;;;;;;29.36;16.54;101702.34;5076751;28;20036;-65
2021/06/25 09:02:02;;;;;;;3.67;3.38;;;;;;;29.24;16.68;101709.09;5075418;28;20278;-64
2021/06/25 09:04:32;;;;;;;5.20;3.95;;;;;;;30.08;16.21;101696.31;5076398;28;20066;-67
2021/06/25 09:06:58;;;;;;;5.88;4.53;;;;;;;30.25;15.86;101693.63;5072322;28;20549;-65
2021/06/25 09:09:37;;;;;;;5.63;5.13;;;;;;;29.85;16.83;101700.72;5071930;28;20048;-66
2021/06/25 09:12:10;;;;;;;3.88;2.92;;;;;;;30.54;14.17;101698.41;5075420;28;20039;-65
2021/06/25 09:14:55;;;;;;;2.92;2.60;;;;;;;29.90;14.57;101688.41;5077867;28;20028;-65
2021/06/25 09:17:20;;;;;;;2.42;2.22;;;;;;;30.09;14.28;101694.50;5059746;28;20378;-64
2021/06/25 09:19:46;;;;;;;2.60;1.83;;;;;;;30.94;14.89;101696.56;5073498;28;20106;-66
2021/06/25 09:22:12;;;;;;;3.80;3.50;;;;;;;30.38;14.43;101697.44;5072146;28;20250;-65
2021/06/25 09:24:38;;;;;;;4.72;4.22;;;;;;;29.55;15.49;101686.88;5077877;28;20420;-65
2021/06/25 09:27:06;;;;;;;4.28;3.85;;;;;;;28.29;16.31;101690.31;5069669;28;20272;-63
2021/06/25 09:29:37;;;;;;;4.63;4.15;;;;;;;27.97;17.39;101698.16;5076725;28;20097;-65
2021/06/25 09:32:04;;;;;;;;;;;;;;;27.39;17.95;101689.59;5070081;28;20028;-63
2021/06/25 09:34:42;;;;;;;4.45;3.88;;;;;;;26.72;19.26;101690.84;5077970;28;19942;-66
2021/06/25 09:37:11;;;;;;;5.90;5.35;;;;;;;27.24;19.56;101696.47;5069220;28;20028;-65
2021/06/25 09:39:41;;;;;;;5.13;4.20;;;;;;;26.85;19.56;101696.72;5067340;28;20024;-65
2021/06/25 09:42:20;;;;;;;6.75;4.07;;;;;;;26.26;21.43;101694.22;5067689;28;20445;-65
2021/06/25 09:45:09;;;;;;;4.95;4.45;;;;;;;25.44;20.73;101700.88;5068173;28;20685;-68
2021/06/25 09:47:41;;;;;;;6.55;4.55;;;;;;;26.31;20.63;101700.97;5068210;28;20599;-65
2021/06/25 09:50:09;;;;;;;7.35;5.30;;;;;;;25.87;22.40;101696.94;5070053;28;20031;-66
2021/06/25 09:52:55;;;;;;;4.90;4.18;;;;;;;25.74;22.19;101700.91;5068117;28;20036;-65
2021/06/25 09:55:25;;;;;;;5.00;4.40;;;;;;;24.41;22.04;101695.72;5073478;28;20085;-66
2021/06/25 10:03:59;;;;;;;7.20;5.53;;;;;;;25.79;22.09;101683.41;5075481;28;20496;-65
2021/06/25 10:06:34;;;;;;;7.00;4.88;;;;;;;24.62;21.76;101687.69;5072666;28;20039;-65
2021/06/25 10:09:00;;;;;;;5.15;4.28;;;;;;;24.69;22.20;101693.34;5071995;28;20394;-65
2021/06/25 10:11:28;;;;;;;4.95;4.38;;;;;;;24.63;21.84;101687.53;5074792;28;20047;-68
2021/06/25 10:13:56;;;;;;;6.55;4.07;;;;;;;24.78;23.03;101684.53;5081076;28;20128;-66
2021/06/25 10:16:23;;;;;;;3.60;3.30;;;;;;;25.83;21.56;101682.16;5069213;28;20032;-66
2021/06/25 10:18:52;;;;;;;5.18;4.28;;;;;;;26.64;20.33;101688.88;5074224;28;20051;-68
2021/06/25 10:21:23;;;;;;;5.15;4.50;;;;;;;25.59;20.57;101687.09;5070639;28;20024;-68
2021/06/25 10:23:51;;;;;;;5.50;3.70;;;;;;;25.09;21.15;101685.34;5074166;28;20484;-67
2021/06/25 10:26:19;;;;;;;6.70;4.68;;;;;;;25.57;21.68;101678.38;5073001;28;20032;-67
2021/06/25 10:28:46;;;;;;;3.88;3.47;;;;;;;24.63;20.70;101670.66;5071855;28;20036;-66
2021/06/25 10:31:17;;;;;;;4.97;2.92;;;;;;;25.21;20.35;101673.50;5072288;28;20031;-66
2021/06/25 10:33:47;;;;;;;3.97;3.67;;;;;;;25.63;21.23;101677.81;5071844;28;20040;-66
2021/06/25 10:36:14;;;;;;;3.65;3.08;;;;;;;24.23;21.12;101677.63;5069859;28;20020;-67
2021/06/25 10:38:43;;;;;;;2.38;2.08;;;;;;;25.34;23.34;101683.97;5070695;28;20080;-66
2021/06/25 10:41:14;;;;;;;4.65;3.17;;;;;;;25.26;19.91;101678.44;5070294;28;20033;-66
2021/06/25 10:43:46;;;;;;;2.90;2.60;;;;;;;24.66;21.26;101683.78;5073576;28;20047;-68
2021/06/25 10:46:30;;;;;;;3.20;2.75;;;;;;;25.20;22.39;101676.34;5077174;28;20340;-67
2021/06/25 10:48:57;;;;;;;3.88;2.85;;;;;;;26.10;20.73;101674.38;5073505;28;20131;-66
2021/06/25 10:51:29;;;;;;;4.45;3.20;;;;;;;25.80;19.47;101677.09;5073690;28;20032;-66
2021/06/25 10:54:16;;;;;;;4.85;4.38;;;;;;;24.92;20.24;101672.59;5078863;28;20097;-68
2021/06/25 10:56:47;;;;;;;10.00;4.00;;;;;;;24.01;21.74;101673.28;5068254;28;20090;-66
2021/06/25 10:59:28;;;;;;;7.10;3.83;;;;;;;24.72;21.56;101687.72;5069845;28;20062;-67
2021/06/25 11:02:01;;;;;;;3.72;3.42;;;;;;;24.73;22.57;101684.94;5076960;28;20040;-67
2021/06/25 11:04:44;;;;;;;7.20;4.25;;;;;;;25.79;21.14;101682.59;5061594;28;20128;-65
2021/06/25 11:07:13;;;;;;;4.85;4.28;;;;;;;25.38;21.00;101679.19;5070404;28;20031;-67
2021/06/25 11:09:57;;;;;;;14.35;5.47;;;;;;;25.13;21.30;101669.84;5069337;28;20459;-66
2021/06/25 11:12:31;;;;;;;6.63;4.88;;;;;;;25.08;22.76;101674.78;5071350;28;20040;-68
2021/06/25 11:15:31;;;;;;;6.18;5.10;;;;;;;26.04;20.78;101675.78;5080206;28;20031;-66
2021/06/25 11:18:18;;;;;;;;;;;;;;;27.43;20.22;101674.88;5069005;28;20036;-66
2021/06/25 11:21:04;;;;;;;5.75;3.60;;;;;;;27.59;19.58;101663.44;5083931;28;19919;-66
2021/06/25 11:23:39;;;;;;;3.40;3.10;;;;;;;26.25;22.17;101668.41;5078039;28;20504;-66
2021/06/25 11:26:14;;;;;;;3.97;3.60;;;;;;;24.95;22.20;101672.31;5069642;28;20036;-67
2021/06/25 11:28:44;;;;;;;3.38;3.05;;;;;;;27.02;22.50;101669.06;5067338;28;20060;-67
2021/06/25 11:31:19;;;;;;;5.43;2.60;;;;;;;26.16;21.16;101669.28;5070563;28;20386;-66
2021/06/25 11:33:47;;;;;;;2.83;2.40;;;;;;;26.58;20.08;101668.00;5071318;28;20039;-66
2021/06/25 11:36:13;;;;;;;5.05;1.52;;;;;;;27.34;20.09;101665.06;5075235;28;20117;-66
2021/06/25 11:38:54;;;;;;;4.82;3.03;;;;;;;27.44;18.57;101665.81;5069444;28;20031;-66
2021/06/25 11:41:21;;;;;;;5.25;2.47;;;;;;;26.80;21.56;101667.63;5068291;28;20312;-65
2021/06/25 11:43:50;;;;;;;4.45;2.38;;;;;;;26.39;20.28;101663.56;5074384;28;20036;-69
2021/06/25 11:46:17;;;;;;;2.50;2.20;;;;;;;27.46;18.97;101658.44;5080808;28;20047;-65
2021/06/25 11:48:43;;;;;;;1.98;1.77;;;;;;;27.90;19.69;101661.19;5074783;28;20040;-67